Sibiu, Romania

12:09 AM EEST on August 31, 2014 (GMT +0300)
Sibiu | Change Station
CLOSE
Current Station
Airport
Location: Sibiu,
Elevation: 1453 ft
Nearby Weather Stations

Elev 1453 ft 45.79 °N, 24.09 °E | Updated 9 minutes ago

Clear
Clear
55 °F
Feels Like 55 °F
N
2
Wind Variable Wind from WSW

Today
High -- | Low -- °F
--% Chance of Precip.
Yesterday
High -- | Low -- °F
Precip. -- in
6:42 AM 8:03 PM
Waxing Crescent, 24% visible
Pressure 30.09 in
Visibility -9999.0 miles
Clouds
Dew Point 54 °F
Humidity 94%
Rainfall 0.00 in
Snow Depth Not available.
UV Not available.
Pollen Not available.
Air Quality Not available.
Flu Activity Not available.
METAR LRSB 302100Z 25002KT CAVOK 13/12 Q1019

More Conditions Fewer Conditions

Pressure 30.09 in
Visibility -9999.0 miles
Clouds
Dew Point 54 °F
Humidity 94%
Rainfall 0.00 in
Snow Depth Not available.
UV Not available.
Pollen Not available.
Air Quality Not available.
Flu Activity Not available.
METAR LRSB 302100Z 25002KT CAVOK 13/12 Q1019

More Conditions Fewer Conditions

10-Day Weather Forecast

Almanac

Astronomy

Aug. 31, 2014 Rise Set
Actual Time 6:42 AM EEST 8:03 PM EEST
Civil Twilight 6:11 AM EEST 8:34 PM EEST
Nautical Twilight 5:34 AM EEST 9:11 PM EEST
Astronomical Twilight 4:54 AM EEST 9:51 PM EEST
Moon 12:29 PM EEST (8/31) 10:46 PM EEST (8/31)
Length of Visible Light 14h 22m
Length of Day
13h 21m
Tomorrow will be 3m 6s shorter.
Waxing Crescent, 24% of the Moon is Illuminated
Aug 30
Waxing Crescent
Sep 2
First Quarter
Sep 8
Full
Sep 15
Last Quarter
Sep 24
New

Yesterday's Extremes

Country Highs Country Lows

Community

WunderPhotos

Upload Photos

1,748,627 photos uploaded!

WunderBlogs® & News

Nearby

Snow Depth

Not available.

Earthquake Activity

City Distance Mag. Time & Date
No recent earthquake activity has been reported nearby.
Minimum magnitude displayed is 2.5.

Coastal Water Temperatures

Place Temperature
No Stations Reporting

Nearby Weather Stations